Geokinetics Inc (NASDAQOTH:GEOKQ)

CAPS Rating: No stars

The Company is a global provider of seismic data acquisition services in land, marsh and swamp and shallow water environments to the oil and natural gas industry.

Results 1 - 99 of 119 : 1 2 Next »
Top
Pick
Member Name Member
Rating
Start
Date
Call Time
Frame
Start
Price
Stock
Gain
Index
Gain
Score Commentary
artcorvelay < 20 5/14/2012 Outperform 1Y $1.32 -99.43% +47.09% -146.52 0 Comment
MoneyPlusSport < 20 1/25/2012 Underperform 5Y $2.00 -99.62% +50.50% +150.12 0 Comment
jdparksASI < 20 9/7/2011 Outperform 5Y $4.60 -99.84% +64.59% -164.43 0 Comment
GreenHillFarAway 28.99 8/22/2011 Outperform 5Y $3.99 -99.81% +74.56% -174.37 0 Comment
Rehydrogenated 34.33 3/29/2011 Outperform 5Y $8.68 -99.91% +50.67% -150.58 0 Comment
2011Fool 99.11 3/25/2011 Outperform NS $8.99 -99.92% +50.52% -150.43 0 Comment
LEGMAKER < 20 2/28/2011 Outperform 5Y $10.59 -99.93% +48.73% -148.66 0 Comment
hcve < 20 1/12/2011 Outperform 3W $9.41 -99.92% +54.23% -154.15 0 Comment
MagicMaggie < 20 12/7/2010 Outperform 5Y $9.35 -99.92% +59.38% -159.30 0 Comment
OberHund < 20 12/6/2010 Outperform 5Y $9.29 -99.92% +61.09% -161.01 0 Comment
tiger6667 < 20 12/1/2010 Outperform 5Y $8.51 -99.91% +64.34% -164.25 0 Comment
bullinnature 94.34 11/9/2009 11/8/2010 Outperform 3Y $12.72 -99.94% +82.99% -182.93 0 Comment
cletedinero < 20 10/18/2010 Outperform 5Y $7.31 -99.90% +67.27% -167.16 0 Comment
brilin 63.43 10/4/2010 Outperform 5Y $6.00 -99.88% +72.72% -172.60 0 Comment
smallandmidcap 98.36 8/10/2010 Underperform 5Y $4.51 -99.83% +76.33% +176.16 0 Comment
roth450 34.33 7/20/2010 Outperform NS $3.99 -99.81% +86.59% -186.40 0 Comment
EffinObama < 20 7/19/2010 Outperform 3Y $4.06 -99.82% +85.27% -185.09 0 Comment
thisyearslosers < 20 6/29/2010 Outperform 5Y $4.12 -99.82% +88.78% -188.60 0 Comment
startunderfive < 20 6/28/2010 Outperform 5Y $4.49 -99.83% +83.45% -183.28 0 Comment
institutionsdown < 20 6/22/2010 Outperform 5Y $4.88 -99.85% +77.31% -177.16 0 Comment
obsoleteaccount < 20 6/21/2010 Outperform 5Y $4.91 -99.85% +77.76% -177.61 0 Comment
jroren 99.36 6/21/2010 Underperform 3M $5.36 -99.86% +74.63% +174.49 0 Comment
iddqkfyou < 20 5/11/2010 Outperform 5Y $6.30 -99.88% +71.67% -171.55 1 Comment
asitka 28.27 5/3/2010 Outperform 1Y $8.74 -99.91% +65.47% -165.39 0 Comment
Genomac 43.35 4/26/2010 Outperform 5Y $9.58 -99.92% +62.12% -162.04 0 Comment
HotDdogv2 < 20 4/26/2010 Outperform 5Y $9.58 -99.92% +62.12% -162.04 0 Comment
aliuce 31.02 4/23/2010 Outperform NS $9.53 -99.92% +62.88% -162.80 0 Comment
iamvoltron 24.73 4/22/2010 Outperform 5Y $8.47 -99.91% +64.88% -164.79 0 Comment
markantonythe3rd 31.63 4/20/2010 Outperform 5Y $8.21 -99.91% +63.80% -163.71 0 Comment
dashark44 93.50 4/19/2010 Outperform 5Y $7.81 -99.90% +66.31% -166.21 0 Comment
Powderiver < 20 4/12/2010 Outperform 5Y $7.94 -99.91% +64.99% -164.89 0 Comment
manjux 24.32 4/1/2010 Underperform 3M $7.32 -99.90% +67.65% +167.55 0 Comment
blue2fire < 20 3/22/2010 Outperform 5Y $7.39 -99.90% +71.31% -171.21 0 Comment
StThomasMoreEsq2 90.07 12/29/2009 2/19/2010 Outperform 3M $9.89 -99.92% +75.25% -175.17 0 Comment
HasOrHasNot 39.41 1/28/2010 Outperform 3Y $10.04 -99.93% +79.24% -179.16 0 Comment
FreeMortal 29.27 1/20/2010 Outperform 5Y $10.34 -99.93% +73.97% -173.89 0 Comment
StGiannaMolla < 20 1/11/2010 Outperform 5Y $10.53 -99.93% +72.13% -172.06 0 Comment
Clockworker < 20 1/6/2010 Outperform 5Y $9.84 -99.92% +73.91% -173.83 0 Comment
TMFPlatoish 97.86 12/16/2009 Outperform 5Y $9.27 -99.92% +76.42% -176.34 0 Comment
chinneymartin 73.11 11/13/2009 Outperform 5Y $13.20 -99.94% +79.71% -179.66 0 Comment
wkcgx2 < 20 11/9/2009 Outperform 5Y $13.18 -99.94% +82.01% -181.95 0 Comment
outperformONLY < 20 10/19/2009 Outperform 5Y $19.49 -99.96% +81.11% -181.07 0 Comment
pennycruncher 53.50 10/19/2009 Outperform 5Y $19.49 -99.96% +81.11% -181.07 0 Comment
GIGManager < 20 10/8/2009 Outperform 3Y $19.24 -99.96% +85.01% -184.98 0 Comment
TotalStrange 93.23 8/12/2009 Outperform 1Y $14.58 -99.95% +97.01% -196.96 0 Comment
jddubya < 20 6/5/2009 Outperform 5Y $14.81 -99.95% +110.56% -210.51 0 Comment
TXmaverick < 20 6/2/2009 Underperform 3W $14.00 -99.95% +110.19% +210.14 1 Comment
marcet 71.88 5/28/2009 Outperform 5Y $13.26 -99.94% +119.56% -219.51 0 Comment
cwimbish 56.75 5/28/2009 Outperform 5Y $11.46 -99.93% +120.65% -220.59 1 Comment
theMovement 79.88 5/21/2009 Outperform 1Y $9.86 -99.92% +123.11% -223.04 0 Comment
unstoppablepeon 21.61 10/27/2008 Underperform NS $6.01 -99.88% +134.31% +234.19 1 Comment
moonleg 21.76 10/22/2008 Underperform 1Y $6.45 -99.88% +117.33% +217.21 0 Comment
Chiownknee 78.07 10/20/2008 Outperform 5Y $8.28 -99.91% +110.32% -210.23 0 Comment
IWalker182 25.96 10/17/2008 Outperform NS $8.44 -99.91% +113.02% -212.94 0 Comment
wakoma < 20 10/8/2008 Outperform NS $12.80 -99.94% +107.81% -207.75 1 Comment
istilldontcare 94.03 9/18/2008 Outperform 5Y $17.34 -99.96% +74.28% -174.24 0 Comment
unotsomuch < 20 8/20/2008 Outperform 3Y $19.10 -99.96% +60.02% -159.98 0 Comment
ejtrains 58.45 8/11/2008 Outperform NS $20.00 -99.96% +57.42% -157.38 0 Comment
joetheboss 40.51 6/11/2008 Outperform 3Y $19.57 -99.96% +51.66% -151.62 1 Comment
Sqwii < 20 6/10/2008 Outperform 1Y $20.32 -99.96% +50.26% -150.22 1 Comment
floridabull33 58.61 5/22/2008 Outperform 3M $20.64 -99.96% +47.01% -146.97 0 Comment
GDragonsDad 62.97 5/7/2008 Outperform NS $19.04 -99.96% +45.20% -145.16 0 Comment
TexasGeoTech < 20 4/30/2008 Outperform 3M $19.04 -99.96% +46.45% -146.41 0 Comment
JCASS714 56.18 4/29/2008 Outperform 5Y $18.82 -99.96% +47.03% -146.99 0 Comment
tuckerjack 25.75 4/17/2008 Outperform 5Y $19.60 -99.96% +50.43% -150.39 0 Comment
greengal1 < 20 4/17/2008 Outperform 3Y $19.60 -99.96% +50.43% -150.39 1 Comment
ctnotebo 51.07 4/11/2008 Outperform 3Y $17.56 -99.96% +51.91% -151.87 0 Comment
louisianacoonie 27.55 3/31/2008 Outperform NS $17.95 -99.96% +55.13% -155.09 0 Comment
bengalmomof4 83.19 3/28/2008 Underperform 3M $17.78 -99.96% +54.04% +154.00 0 Comment
chad07gt < 20 3/27/2008 Outperform NS $17.78 -99.96% +53.84% -153.80 0 Comment
MoltenTofu < 20 3/14/2008 Outperform NS $17.34 -99.96% +55.05% -155.01 0 Comment
AgendaPacific 35.30 3/14/2008 Outperform 3Y $17.34 -99.96% +55.05% -155.01 0 Comment
ToeInsider 43.59 3/10/2008 Outperform NS $16.26 -99.95% +58.59% -158.55 0 Comment
altitudeaddict 30.87 2/28/2008 Outperform 5Y $17.94 -99.96% +50.01% -149.97 0 Comment
tritterup 56.86 2/26/2008 Outperform NS $18.36 -99.96% +49.09% -149.04 0 Comment
arindamd < 20 2/26/2008 Outperform 1Y $17.79 -99.96% +50.03% -149.99 1 Comment
dmgchess 62.30 2/20/2008 Outperform 1Y $17.66 -99.96% +53.65% -153.60 0 Comment
aalvarma < 20 2/20/2008 Outperform 1Y $17.66 -99.96% +53.65% -153.60 0 Comment
thetoxman 80.45 2/14/2008 Outperform 1Y $17.31 -99.96% +50.33% -150.28 0 Comment
thatguy99 26.89 2/5/2008 Outperform 5Y $17.79 -99.96% +51.45% -151.40 0 Comment
mopomi 80.25 1/24/2008 Outperform 5Y $18.76 -99.96% +53.43% -153.39 0 Comment
ATWDLimited < 20 1/23/2008 Outperform NS $18.34 -99.96% +58.57% -158.53 0 Comment
financeman101 < 20 1/17/2008 Outperform NS $16.85 -99.96% +54.57% -154.53 0 Comment
evreeland 28.10 1/16/2008 Outperform 1Y $16.25 -99.95% +50.31% -150.26 0 Comment
Obyss 59.50 12/31/2007 Outperform 3W $19.14 -99.96% +39.96% -139.92 0 Comment
Kenster35OR < 20 12/24/2007 Outperform 1Y $20.20 -99.96% +38.34% -138.30 0 Comment
StockRakedotcom < 20 12/13/2007 Outperform NS $22.40 -99.97% +39.54% -139.51 0 Comment
everything4less 42.23 12/13/2007 Outperform 1Y $22.40 -99.97% +39.54% -139.51 0 Comment
beachlokal < 20 12/12/2007 Outperform 5Y $23.10 -99.97% +38.44% -138.40 0 Comment
WavingSpices < 20 12/5/2007 Outperform NS $22.10 -99.97% +39.60% -139.56 0 Comment
SaltyGenes 46.40 11/27/2007 Outperform 5Y $22.14 -99.97% +46.01% -145.98 0 Comment
apper < 20 11/21/2007 Outperform 5Y $22.58 -99.97% +45.62% -145.59 0 Comment
ProjectJack < 20 11/5/2007 Outperform 1Y $19.90 -99.96% +37.69% -137.65 0 Comment
IntenseSpider 89.13 10/25/2007 Outperform NS $22.86 -99.97% +37.75% -137.72 0 Comment
tv5cents 94.08 10/23/2007 Outperform 5Y $22.00 -99.97% +36.65% -136.61 0 Comment
JR9901 85.88 10/22/2007 Outperform 5Y $21.85 -99.97% +39.03% -138.99 0 Comment
Garranova 90.15 10/22/2007 Outperform NS $21.85 -99.97% +39.03% -138.99 0 Comment
cleveland503 85.03 10/15/2007 Outperform NS $24.60 -99.97% +32.44% -132.41 0 Comment
ATLDARK31 < 20 10/12/2007 Outperform 5Y $24.50 -99.97% +33.13% -133.10 0 Comment
Results 1 - 99 of 119 : 1 2 Next »

Featured Broker Partners


Advertisement